sensor_id;sensor_type;location;lat;lon;timestamp;P1;durP1;ratioP1;P2;durP2;ratioP2
47960;SDS011;33721;48.852;9.936;2024-01-06T00:01:51;7.47;;;3.88;;
47960;SDS011;33721;48.852;9.936;2024-01-06T00:04:16;7.05;;;3.47;;
47960;SDS011;33721;48.852;9.936;2024-01-06T00:06:42;8.32;;;3.70;;
47960;SDS011;33721;48.852;9.936;2024-01-06T00:09:07;7.80;;;3.40;;
47960;SDS011;33721;48.852;9.936;2024-01-06T00:11:33;11.02;;;3.70;;
47960;SDS011;33721;48.852;9.936;2024-01-06T00:13:59;14.45;;;4.40;;
47960;SDS011;33721;48.852;9.936;2024-01-06T00:16:24;9.27;;;4.00;;
47960;SDS011;33721;48.852;9.936;2024-01-06T00:18:50;10.63;;;4.30;;
47960;SDS011;33721;48.852;9.936;2024-01-06T00:21:15;9.85;;;4.13;;
47960;SDS011;33721;48.852;9.936;2024-01-06T00:23:41;8.32;;;3.55;;
47960;SDS011;33721;48.852;9.936;2024-01-06T00:26:07;10.23;;;4.03;;
47960;SDS011;33721;48.852;9.936;2024-01-06T00:28:33;11.18;;;3.58;;
47960;SDS011;33721;48.852;9.936;2024-01-06T00:30:59;10.25;;;3.60;;
47960;SDS011;33721;48.852;9.936;2024-01-06T00:33:24;6.93;;;3.22;;
47960;SDS011;33721;48.852;9.936;2024-01-06T00:35:50;11.80;;;3.60;;
47960;SDS011;33721;48.852;9.936;2024-01-06T00:38:16;6.93;;;3.13;;
47960;SDS011;33721;48.852;9.936;2024-01-06T00:40:42;10.63;;;3.50;;
47960;SDS011;33721;48.852;9.936;2024-01-06T00:43:07;8.23;;;3.53;;
47960;SDS011;33721;48.852;9.936;2024-01-06T00:45:33;8.32;;;3.10;;
47960;SDS011;33721;48.852;9.936;2024-01-06T00:47:59;11.68;;;3.30;;
47960;SDS011;33721;48.852;9.936;2024-01-06T00:50:24;7.28;;;3.13;;
47960;SDS011;33721;48.852;9.936;2024-01-06T00:52:50;7.25;;;3.28;;
47960;SDS011;33721;48.852;9.936;2024-01-06T00:55:19;10.43;;;3.60;;
47960;SDS011;33721;48.852;9.936;2024-01-06T00:57:45;6.13;;;3.15;;
47960;SDS011;33721;48.852;9.936;2024-01-06T01:00:11;8.48;;;3.10;;
47960;SDS011;33721;48.852;9.936;2024-01-06T01:02:37;7.72;;;3.00;;
47960;SDS011;33721;48.852;9.936;2024-01-06T01:05:03;6.85;;;2.88;;
47960;SDS011;33721;48.852;9.936;2024-01-06T01:07:29;10.40;;;3.30;;
47960;SDS011;33721;48.852;9.936;2024-01-06T01:09:55;6.68;;;2.95;;
47960;SDS011;33721;48.852;9.936;2024-01-06T01:12:21;8.80;;;3.10;;
47960;SDS011;33721;48.852;9.936;2024-01-06T01:14:48;7.38;;;3.60;;
47960;SDS011;33721;48.852;9.936;2024-01-06T01:17:14;10.40;;;3.22;;
47960;SDS011;33721;48.852;9.936;2024-01-06T01:19:40;11.88;;;3.70;;
47960;SDS011;33721;48.852;9.936;2024-01-06T01:22:05;10.10;;;3.75;;
47960;SDS011;33721;48.852;9.936;2024-01-06T01:24:31;10.07;;;3.75;;
47960;SDS011;33721;48.852;9.936;2024-01-06T01:26:57;11.07;;;4.18;;
47960;SDS011;33721;48.852;9.936;2024-01-06T01:29:22;9.93;;;3.90;;
47960;SDS011;33721;48.852;9.936;2024-01-06T01:31:48;8.82;;;3.75;;
47960;SDS011;33721;48.852;9.936;2024-01-06T01:34:13;10.95;;;4.28;;
47960;SDS011;33721;48.852;9.936;2024-01-06T01:36:39;12.93;;;4.18;;
47960;SDS011;33721;48.852;9.936;2024-01-06T01:39:05;10.93;;;4.05;;
47960;SDS011;33721;48.852;9.936;2024-01-06T01:41:31;9.57;;;3.80;;
47960;SDS011;33721;48.852;9.936;2024-01-06T01:43:56;7.60;;;3.70;;
47960;SDS011;33721;48.852;9.936;2024-01-06T01:46:25;8.00;;;3.63;;
47960;SDS011;33721;48.852;9.936;2024-01-06T01:48:52;9.85;;;4.07;;
47960;SDS011;33721;48.852;9.936;2024-01-06T01:51:20;9.50;;;4.07;;
47960;SDS011;33721;48.852;9.936;2024-01-06T01:53:46;10.30;;;4.05;;
47960;SDS011;33721;48.852;9.936;2024-01-06T01:56:12;9.15;;;3.90;;
47960;SDS011;33721;48.852;9.936;2024-01-06T01:58:38;12.27;;;3.88;;
47960;SDS011;33721;48.852;9.936;2024-01-06T02:01:04;12.85;;;4.43;;
47960;SDS011;33721;48.852;9.936;2024-01-06T02:03:30;10.90;;;4.63;;
47960;SDS011;33721;48.852;9.936;2024-01-06T02:05:56;10.55;;;4.20;;
47960;SDS011;33721;48.852;9.936;2024-01-06T02:08:21;15.95;;;4.63;;
47960;SDS011;33721;48.852;9.936;2024-01-06T02:10:48;10.40;;;4.15;;
47960;SDS011;33721;48.852;9.936;2024-01-06T02:13:13;10.63;;;4.30;;
47960;SDS011;33721;48.852;9.936;2024-01-06T02:15:39;14.25;;;5.30;;
47960;SDS011;33721;48.852;9.936;2024-01-06T02:18:05;12.52;;;4.53;;
47960;SDS011;33721;48.852;9.936;2024-01-06T02:20:31;14.00;;;5.18;;
47960;SDS011;33721;48.852;9.936;2024-01-06T02:22:56;10.63;;;4.45;;
47960;SDS011;33721;48.852;9.936;2024-01-06T02:25:24;13.23;;;5.10;;
47960;SDS011;33721;48.852;9.936;2024-01-06T02:27:50;9.18;;;4.50;;
47960;SDS011;33721;48.852;9.936;2024-01-06T02:30:15;11.75;;;4.97;;
47960;SDS011;33721;48.852;9.936;2024-01-06T02:32:41;10.45;;;4.90;;
47960;SDS011;33721;48.852;9.936;2024-01-06T02:35:07;13.27;;;5.05;;
47960;SDS011;33721;48.852;9.936;2024-01-06T02:37:33;14.45;;;5.20;;
47960;SDS011;33721;48.852;9.936;2024-01-06T02:39:58;14.23;;;5.45;;
47960;SDS011;33721;48.852;9.936;2024-01-06T02:42:24;15.68;;;5.82;;
47960;SDS011;33721;48.852;9.936;2024-01-06T02:44:50;18.50;;;5.68;;
47960;SDS011;33721;48.852;9.936;2024-01-06T02:47:16;11.60;;;5.55;;
47960;SDS011;33721;48.852;9.936;2024-01-06T02:49:41;14.48;;;5.60;;
47960;SDS011;33721;48.852;9.936;2024-01-06T02:52:07;15.13;;;5.80;;
47960;SDS011;33721;48.852;9.936;2024-01-06T02:54:33;14.23;;;5.85;;
47960;SDS011;33721;48.852;9.936;2024-01-06T02:56:58;16.98;;;6.00;;
47960;SDS011;33721;48.852;9.936;2024-01-06T02:59:24;17.55;;;6.32;;
47960;SDS011;33721;48.852;9.936;2024-01-06T03:01:49;14.45;;;6.50;;
47960;SDS011;33721;48.852;9.936;2024-01-06T03:04:15;11.57;;;5.68;;
47960;SDS011;33721;48.852;9.936;2024-01-06T03:06:41;14.85;;;6.18;;
47960;SDS011;33721;48.852;9.936;2024-01-06T03:09:07;13.77;;;5.70;;
47960;SDS011;33721;48.852;9.936;2024-01-06T03:11:32;15.23;;;5.80;;
47960;SDS011;33721;48.852;9.936;2024-01-06T03:13:58;17.25;;;5.95;;
47960;SDS011;33721;48.852;9.936;2024-01-06T03:16:24;16.30;;;6.05;;
47960;SDS011;33721;48.852;9.936;2024-01-06T03:18:49;16.80;;;5.40;;
47960;SDS011;33721;48.852;9.936;2024-01-06T03:21:18;12.68;;;5.20;;
47960;SDS011;33721;48.852;9.936;2024-01-06T03:23:45;13.77;;;6.03;;
47960;SDS011;33721;48.852;9.936;2024-01-06T03:26:11;12.85;;;5.68;;
47960;SDS011;33721;48.852;9.936;2024-01-06T03:28:37;20.35;;;6.40;;
47960;SDS011;33721;48.852;9.936;2024-01-06T03:31:03;16.38;;;5.50;;
47960;SDS011;33721;48.852;9.936;2024-01-06T03:33:28;13.07;;;5.38;;
47960;SDS011;33721;48.852;9.936;2024-01-06T03:35:54;16.35;;;5.97;;
47960;SDS011;33721;48.852;9.936;2024-01-06T03:38:19;17.63;;;6.03;;
47960;SDS011;33721;48.852;9.936;2024-01-06T03:40:45;14.40;;;5.95;;
47960;SDS011;33721;48.852;9.936;2024-01-06T03:43:11;13.65;;;6.05;;
47960;SDS011;33721;48.852;9.936;2024-01-06T03:45:36;14.05;;;4.97;;
47960;SDS011;33721;48.852;9.936;2024-01-06T03:48:02;12.98;;;5.55;;
47960;SDS011;33721;48.852;9.936;2024-01-06T03:50:28;12.32;;;5.53;;
47960;SDS011;33721;48.852;9.936;2024-01-06T03:52:53;15.13;;;6.22;;
47960;SDS011;33721;48.852;9.936;2024-01-06T03:55:19;14.57;;;5.82;;
47960;SDS011;33721;48.852;9.936;2024-01-06T03:57:44;16.98;;;6.22;;
47960;SDS011;33721;48.852;9.936;2024-01-06T04:00:10;13.85;;;5.30;;
47960;SDS011;33721;48.852;9.936;2024-01-06T04:02:36;16.05;;;5.82;;
47960;SDS011;33721;48.852;9.936;2024-01-06T04:05:02;15.20;;;6.22;;
47960;SDS011;33721;48.852;9.936;2024-01-06T04:07:30;14.25;;;5.80;;
47960;SDS011;33721;48.852;9.936;2024-01-06T04:09:55;12.45;;;5.63;;
47960;SDS011;33721;48.852;9.936;2024-01-06T04:12:21;15.82;;;5.85;;
47960;SDS011;33721;48.852;9.936;2024-01-06T04:14:47;15.73;;;5.65;;
47960;SDS011;33721;48.852;9.936;2024-01-06T04:17:12;14.82;;;5.90;;
47960;SDS011;33721;48.852;9.936;2024-01-06T04:19:38;14.23;;;6.10;;
47960;SDS011;33721;48.852;9.936;2024-01-06T04:22:03;17.20;;;6.28;;
47960;SDS011;33721;48.852;9.936;2024-01-06T04:24:29;14.40;;;6.22;;
47960;SDS011;33721;48.852;9.936;2024-01-06T04:26:55;13.82;;;6.13;;
47960;SDS011;33721;48.852;9.936;2024-01-06T04:29:21;19.02;;;6.57;;
47960;SDS011;33721;48.852;9.936;2024-01-06T04:31:46;18.35;;;6.63;;
47960;SDS011;33721;48.852;9.936;2024-01-06T04:34:12;16.77;;;6.82;;
47960;SDS011;33721;48.852;9.936;2024-01-06T04:36:37;12.70;;;5.68;;
47960;SDS011;33721;48.852;9.936;2024-01-06T04:39:03;18.25;;;6.63;;
47960;SDS011;33721;48.852;9.936;2024-01-06T04:41:29;17.42;;;6.28;;
47960;SDS011;33721;48.852;9.936;2024-01-06T04:43:54;17.25;;;5.80;;
47960;SDS011;33721;48.852;9.936;2024-01-06T04:46:20;13.43;;;6.35;;
47960;SDS011;33721;48.852;9.936;2024-01-06T04:48:46;14.35;;;6.18;;
47960;SDS011;33721;48.852;9.936;2024-01-06T04:51:12;18.85;;;6.65;;
47960;SDS011;33721;48.852;9.936;2024-01-06T04:53:38;18.13;;;6.60;;
47960;SDS011;33721;48.852;9.936;2024-01-06T04:56:05;19.90;;;6.68;;
47960;SDS011;33721;48.852;9.936;2024-01-06T04:58:30;13.80;;;6.35;;
47960;SDS011;33721;48.852;9.936;2024-01-06T05:00:56;19.00;;;6.13;;
47960;SDS011;33721;48.852;9.936;2024-01-06T05:03:22;13.13;;;5.72;;
47960;SDS011;33721;48.852;9.936;2024-01-06T05:05:48;18.67;;;5.78;;
47960;SDS011;33721;48.852;9.936;2024-01-06T05:08:13;19.05;;;5.20;;
47960;SDS011;33721;48.852;9.936;2024-01-06T05:10:39;15.20;;;5.40;;
47960;SDS011;33721;48.852;9.936;2024-01-06T05:13:04;17.98;;;5.25;;
47960;SDS011;33721;48.852;9.936;2024-01-06T05:15:30;12.43;;;5.35;;
47960;SDS011;33721;48.852;9.936;2024-01-06T05:17:56;15.43;;;5.18;;
47960;SDS011;33721;48.852;9.936;2024-01-06T05:20:21;21.05;;;5.20;;
47960;SDS011;33721;48.852;9.936;2024-01-06T05:22:47;16.20;;;5.00;;
47960;SDS011;33721;48.852;9.936;2024-01-06T05:25:12;14.02;;;4.75;;
47960;SDS011;33721;48.852;9.936;2024-01-06T05:27:38;15.98;;;5.07;;
47960;SDS011;33721;48.852;9.936;2024-01-06T05:30:04;12.25;;;4.55;;
47960;SDS011;33721;48.852;9.936;2024-01-06T05:32:31;16.67;;;5.40;;
47960;SDS011;33721;48.852;9.936;2024-01-06T05:34:57;14.75;;;5.40;;
47960;SDS011;33721;48.852;9.936;2024-01-06T05:37:22;14.02;;;4.40;;
47960;SDS011;33721;48.852;9.936;2024-01-06T05:39:48;14.73;;;5.13;;
47960;SDS011;33721;48.852;9.936;2024-01-06T05:42:13;13.38;;;4.38;;
47960;SDS011;33721;48.852;9.936;2024-01-06T05:44:42;17.05;;;5.05;;
47960;SDS011;33721;48.852;9.936;2024-01-06T05:47:08;10.73;;;4.53;;
47960;SDS011;33721;48.852;9.936;2024-01-06T05:49:33;15.13;;;4.93;;
47960;SDS011;33721;48.852;9.936;2024-01-06T05:51:59;12.25;;;5.00;;
47960;SDS011;33721;48.852;9.936;2024-01-06T05:54:25;15.30;;;4.80;;
47960;SDS011;33721;48.852;9.936;2024-01-06T05:56:50;17.05;;;4.68;;
47960;SDS011;33721;48.852;9.936;2024-01-06T05:59:16;12.63;;;4.07;;
47960;SDS011;33721;48.852;9.936;2024-01-06T06:01:42;13.52;;;4.75;;
47960;SDS011;33721;48.852;9.936;2024-01-06T06:04:08;9.50;;;3.92;;
47960;SDS011;33721;48.852;9.936;2024-01-06T06:06:35;11.50;;;4.22;;
47960;SDS011;33721;48.852;9.936;2024-01-06T06:09:00;14.68;;;4.63;;
47960;SDS011;33721;48.852;9.936;2024-01-06T06:11:31;9.00;;;3.85;;
47960;SDS011;33721;48.852;9.936;2024-01-06T06:13:57;12.18;;;3.90;;
47960;SDS011;33721;48.852;9.936;2024-01-06T06:16:23;8.27;;;3.90;;
47960;SDS011;33721;48.852;9.936;2024-01-06T06:18:49;17.20;;;4.13;;
47960;SDS011;33721;48.852;9.936;2024-01-06T06:21:14;12.80;;;4.28;;
47960;SDS011;33721;48.852;9.936;2024-01-06T06:23:40;8.48;;;3.40;;
47960;SDS011;33721;48.852;9.936;2024-01-06T06:26:06;14.30;;;4.25;;
47960;SDS011;33721;48.852;9.936;2024-01-06T06:28:33;13.60;;;3.40;;
47960;SDS011;33721;48.852;9.936;2024-01-06T06:30:59;9.30;;;3.92;;
47960;SDS011;33721;48.852;9.936;2024-01-06T06:33:26;8.10;;;3.20;;
47960;SDS011;33721;48.852;9.936;2024-01-06T06:35:52;9.82;;;3.78;;
47960;SDS011;33721;48.852;9.936;2024-01-06T06:38:17;11.70;;;4.10;;
47960;SDS011;33721;48.852;9.936;2024-01-06T06:40:43;14.05;;;3.75;;
47960;SDS011;33721;48.852;9.936;2024-01-06T06:43:08;10.30;;;2.97;;
47960;SDS011;33721;48.852;9.936;2024-01-06T06:45:34;9.85;;;3.05;;
47960;SDS011;33721;48.852;9.936;2024-01-06T06:48:00;9.73;;;3.00;;
47960;SDS011;33721;48.852;9.936;2024-01-06T06:50:25;8.60;;;3.58;;
47960;SDS011;33721;48.852;9.936;2024-01-06T06:52:51;11.57;;;3.15;;
47960;SDS011;33721;48.852;9.936;2024-01-06T06:55:17;12.23;;;3.28;;
47960;SDS011;33721;48.852;9.936;2024-01-06T06:57:43;12.40;;;3.92;;
47960;SDS011;33721;48.852;9.936;2024-01-06T07:00:09;11.68;;;3.58;;
47960;SDS011;33721;48.852;9.936;2024-01-06T07:02:35;12.23;;;3.75;;
47960;SDS011;33721;48.852;9.936;2024-01-06T07:05:01;14.73;;;3.95;;
47960;SDS011;33721;48.852;9.936;2024-01-06T07:07:27;8.45;;;3.60;;
47960;SDS011;33721;48.852;9.936;2024-01-06T07:09:52;13.52;;;3.65;;
47960;SDS011;33721;48.852;9.936;2024-01-06T07:12:18;16.83;;;3.53;;
47960;SDS011;33721;48.852;9.936;2024-01-06T07:14:44;11.95;;;3.65;;
47960;SDS011;33721;48.852;9.936;2024-01-06T07:17:09;8.52;;;3.63;;
47960;SDS011;33721;48.852;9.936;2024-01-06T07:19:35;13.98;;;3.90;;
47960;SDS011;33721;48.852;9.936;2024-01-06T07:22:01;14.73;;;3.72;;
47960;SDS011;33721;48.852;9.936;2024-01-06T07:24:26;14.50;;;4.38;;
47960;SDS011;33721;48.852;9.936;2024-01-06T07:26:52;11.10;;;4.15;;
47960;SDS011;33721;48.852;9.936;2024-01-06T07:29:18;12.85;;;3.92;;
47960;SDS011;33721;48.852;9.936;2024-01-06T07:31:43;12.73;;;4.03;;
47960;SDS011;33721;48.852;9.936;2024-01-06T07:34:09;11.85;;;4.07;;
47960;SDS011;33721;48.852;9.936;2024-01-06T07:36:35;13.80;;;4.50;;
47960;SDS011;33721;48.852;9.936;2024-01-06T07:39:01;11.50;;;4.10;;
47960;SDS011;33721;48.852;9.936;2024-01-06T07:41:28;14.50;;;4.18;;
47960;SDS011;33721;48.852;9.936;2024-01-06T07:43:55;10.52;;;4.60;;
47960;SDS011;33721;48.852;9.936;2024-01-06T07:46:21;14.38;;;4.85;;
47960;SDS011;33721;48.852;9.936;2024-01-06T07:48:47;13.93;;;5.15;;
47960;SDS011;33721;48.852;9.936;2024-01-06T07:51:12;13.82;;;5.43;;
47960;SDS011;33721;48.852;9.936;2024-01-06T07:53:38;11.95;;;4.97;;
47960;SDS011;33721;48.852;9.936;2024-01-06T07:56:04;13.90;;;4.97;;
47960;SDS011;33721;48.852;9.936;2024-01-06T07:58:30;12.13;;;5.18;;
47960;SDS011;33721;48.852;9.936;2024-01-06T08:00:56;16.23;;;5.18;;
47960;SDS011;33721;48.852;9.936;2024-01-06T08:03:22;12.55;;;5.55;;
47960;SDS011;33721;48.852;9.936;2024-01-06T08:05:48;13.75;;;5.20;;
47960;SDS011;33721;48.852;9.936;2024-01-06T08:08:14;12.95;;;5.30;;
47960;SDS011;33721;48.852;9.936;2024-01-06T08:10:41;12.98;;;5.60;;
47960;SDS011;33721;48.852;9.936;2024-01-06T08:13:07;14.73;;;5.00;;
47960;SDS011;33721;48.852;9.936;2024-01-06T08:15:33;17.13;;;6.60;;
47960;SDS011;33721;48.852;9.936;2024-01-06T08:17:59;16.20;;;5.90;;
47960;SDS011;33721;48.852;9.936;2024-01-06T08:20:25;12.77;;;5.00;;
47960;SDS011;33721;48.852;9.936;2024-01-06T08:22:50;13.10;;;5.15;;
47960;SDS011;33721;48.852;9.936;2024-01-06T08:25:16;16.05;;;5.32;;
47960;SDS011;33721;48.852;9.936;2024-01-06T08:27:42;13.85;;;5.60;;
47960;SDS011;33721;48.852;9.936;2024-01-06T08:30:09;13.02;;;5.53;;
47960;SDS011;33721;48.852;9.936;2024-01-06T08:32:35;13.43;;;5.43;;
47960;SDS011;33721;48.852;9.936;2024-01-06T08:35:00;16.85;;;5.32;;
47960;SDS011;33721;48.852;9.936;2024-01-06T08:37:26;12.77;;;5.43;;
47960;SDS011;33721;48.852;9.936;2024-01-06T08:39:52;10.27;;;4.32;;
47960;SDS011;33721;48.852;9.936;2024-01-06T08:42:17;12.55;;;4.72;;
47960;SDS011;33721;48.852;9.936;2024-01-06T08:44:43;13.45;;;4.28;;
47960;SDS011;33721;48.852;9.936;2024-01-06T08:47:09;11.27;;;4.05;;
47960;SDS011;33721;48.852;9.936;2024-01-06T08:49:35;17.42;;;4.60;;
47960;SDS011;33721;48.852;9.936;2024-01-06T08:52:01;16.05;;;4.30;;
47960;SDS011;33721;48.852;9.936;2024-01-06T08:54:26;12.52;;;4.10;;
47960;SDS011;33721;48.852;9.936;2024-01-06T08:56:52;15.95;;;4.75;;
47960;SDS011;33721;48.852;9.936;2024-01-06T08:59:18;9.85;;;3.63;;
47960;SDS011;33721;48.852;9.936;2024-01-06T09:01:45;10.70;;;3.25;;
47960;SDS011;33721;48.852;9.936;2024-01-06T09:04:10;10.95;;;3.80;;
47960;SDS011;33721;48.852;9.936;2024-01-06T09:06:37;6.28;;;3.15;;
47960;SDS011;33721;48.852;9.936;2024-01-06T09:09:03;8.95;;;3.45;;
47960;SDS011;33721;48.852;9.936;2024-01-06T09:11:30;9.02;;;3.80;;
47960;SDS011;33721;48.852;9.936;2024-01-06T09:13:56;9.20;;;3.90;;
47960;SDS011;33721;48.852;9.936;2024-01-06T09:16:21;10.77;;;4.53;;
47960;SDS011;33721;48.852;9.936;2024-01-06T09:18:47;10.18;;;4.50;;
47960;SDS011;33721;48.852;9.936;2024-01-06T09:21:14;14.50;;;6.07;;
47960;SDS011;33721;48.852;9.936;2024-01-06T09:23:40;14.70;;;4.18;;
47960;SDS011;33721;48.852;9.936;2024-01-06T09:26:06;9.52;;;3.78;;
47960;SDS011;33721;48.852;9.936;2024-01-06T09:28:31;9.80;;;3.30;;
47960;SDS011;33721;48.852;9.936;2024-01-06T09:30:57;13.15;;;5.38;;
47960;SDS011;33721;48.852;9.936;2024-01-06T09:33:23;10.35;;;3.92;;
47960;SDS011;33721;48.852;9.936;2024-01-06T09:35:48;10.90;;;2.95;;
47960;SDS011;33721;48.852;9.936;2024-01-06T09:38:14;8.82;;;3.58;;
47960;SDS011;33721;48.852;9.936;2024-01-06T09:40:43;14.43;;;3.60;;
47960;SDS011;33721;48.852;9.936;2024-01-06T09:43:12;7.30;;;3.60;;
47960;SDS011;33721;48.852;9.936;2024-01-06T09:45:38;9.18;;;3.58;;
47960;SDS011;33721;48.852;9.936;2024-01-06T09:48:10;7.05;;;3.00;;
47960;SDS011;33721;48.852;9.936;2024-01-06T09:50:40;11.90;;;3.05;;
47960;SDS011;33721;48.852;9.936;2024-01-06T09:53:10;8.95;;;4.22;;
47960;SDS011;33721;48.852;9.936;2024-01-06T09:55:36;13.63;;;3.65;;
47960;SDS011;33721;48.852;9.936;2024-01-06T09:58:03;9.15;;;3.40;;
47960;SDS011;33721;48.852;9.936;2024-01-06T10:00:30;7.05;;;3.00;;
47960;SDS011;33721;48.852;9.936;2024-01-06T10:02:55;6.72;;;3.50;;
47960;SDS011;33721;48.852;9.936;2024-01-06T10:05:21;8.30;;;3.28;;
47960;SDS011;33721;48.852;9.936;2024-01-06T10:07:47;10.77;;;3.53;;
47960;SDS011;33721;48.852;9.936;2024-01-06T10:10:13;10.07;;;3.47;;
47960;SDS011;33721;48.852;9.936;2024-01-06T10:12:39;11.68;;;3.97;;
47960;SDS011;33721;48.852;9.936;2024-01-06T10:15:10;11.55;;;4.15;;
47960;SDS011;33721;48.852;9.936;2024-01-06T10:17:40;10.05;;;3.92;;
47960;SDS011;33721;48.852;9.936;2024-01-06T10:20:08;5.67;;;2.80;;
47960;SDS011;33721;48.852;9.936;2024-01-06T10:22:35;12.63;;;3.72;;
47960;SDS011;33721;48.852;9.936;2024-01-06T10:25:04;11.10;;;3.88;;
47960;SDS011;33721;48.852;9.936;2024-01-06T10:27:33;9.18;;;3.75;;
47960;SDS011;33721;48.852;9.936;2024-01-06T10:30:02;9.32;;;4.20;;
47960;SDS011;33721;48.852;9.936;2024-01-06T10:32:31;12.43;;;4.40;;
47960;SDS011;33721;48.852;9.936;2024-01-06T10:34:57;12.13;;;4.10;;
47960;SDS011;33721;48.852;9.936;2024-01-06T10:37:23;12.80;;;3.63;;
47960;SDS011;33721;48.852;9.936;2024-01-06T10:40:04;11.73;;;3.40;;
47960;SDS011;33721;48.852;9.936;2024-01-06T10:42:47;6.93;;;2.95;;
47960;SDS011;33721;48.852;9.936;2024-01-06T10:45:13;9.13;;;3.10;;
47960;SDS011;33721;48.852;9.936;2024-01-06T10:47:43;6.20;;;2.75;;
47960;SDS011;33721;48.852;9.936;2024-01-06T10:50:09;10.07;;;4.03;;
47960;SDS011;33721;48.852;9.936;2024-01-06T10:52:35;11.15;;;4.00;;
47960;SDS011;33721;48.852;9.936;2024-01-06T10:55:04;9.20;;;3.22;;
47960;SDS011;33721;48.852;9.936;2024-01-06T10:57:30;9.65;;;3.17;;
47960;SDS011;33721;48.852;9.936;2024-01-06T10:59:57;9.55;;;3.17;;
47960;SDS011;33721;48.852;9.936;2024-01-06T11:02:24;8.35;;;3.45;;
47960;SDS011;33721;48.852;9.936;2024-01-06T11:04:50;9.00;;;3.38;;
47960;SDS011;33721;48.852;9.936;2024-01-06T11:07:18;11.60;;;4.65;;
47960;SDS011;33721;48.852;9.936;2024-01-06T11:09:52;17.08;;;7.28;;
47960;SDS011;33721;48.852;9.936;2024-01-06T11:12:23;23.08;;;14.43;;
47960;SDS011;33721;48.852;9.936;2024-01-06T11:14:51;9.38;;;3.63;;
47960;SDS011;33721;48.852;9.936;2024-01-06T11:20:20;8.52;;;2.65;;
47960;SDS011;33721;48.852;9.936;2024-01-06T11:22:55;17.40;;;3.33;;
47960;SDS011;33721;48.852;9.936;2024-01-06T11:25:45;11.15;;;2.95;;
47960;SDS011;33721;48.852;9.936;2024-01-06T11:28:11;6.63;;;2.88;;
47960;SDS011;33721;48.852;9.936;2024-01-06T11:30:37;7.13;;;3.13;;
47960;SDS011;33721;48.852;9.936;2024-01-06T11:33:04;6.43;;;2.75;;
47960;SDS011;33721;48.852;9.936;2024-01-06T11:35:30;7.70;;;2.80;;
47960;SDS011;33721;48.852;9.936;2024-01-06T11:38:06;6.40;;;3.22;;
47960;SDS011;33721;48.852;9.936;2024-01-06T11:40:35;8.18;;;3.45;;
47960;SDS011;33721;48.852;9.936;2024-01-06T11:45:28;6.22;;;2.67;;
47960;SDS011;33721;48.852;9.936;2024-01-06T11:47:55;8.52;;;3.22;;
47960;SDS011;33721;48.852;9.936;2024-01-06T11:50:26;7.45;;;3.35;;
47960;SDS011;33721;48.852;9.936;2024-01-06T11:52:53;7.10;;;2.80;;
47960;SDS011;33721;48.852;9.936;2024-01-06T11:55:20;7.78;;;3.25;;
47960;SDS011;33721;48.852;9.936;2024-01-06T11:57:46;7.68;;;3.17;;
47960;SDS011;33721;48.852;9.936;2024-01-06T12:00:15;6.82;;;3.22;;
47960;SDS011;33721;48.852;9.936;2024-01-06T12:02:41;6.53;;;2.90;;
47960;SDS011;33721;48.852;9.936;2024-01-06T12:05:14;6.72;;;3.30;;
47960;SDS011;33721;48.852;9.936;2024-01-06T12:07:41;7.15;;;3.40;;
47960;SDS011;33721;48.852;9.936;2024-01-06T12:10:10;7.60;;;3.30;;
47960;SDS011;33721;48.852;9.936;2024-01-06T12:12:37;9.93;;;3.72;;
47960;SDS011;33721;48.852;9.936;2024-01-06T12:15:03;8.35;;;3.72;;
47960;SDS011;33721;48.852;9.936;2024-01-06T12:17:29;7.97;;;3.50;;
47960;SDS011;33721;48.852;9.936;2024-01-06T12:19:56;7.10;;;3.50;;
47960;SDS011;33721;48.852;9.936;2024-01-06T12:22:22;6.72;;;3.33;;
47960;SDS011;33721;48.852;9.936;2024-01-06T12:24:51;7.72;;;3.10;;
47960;SDS011;33721;48.852;9.936;2024-01-06T12:27:17;7.45;;;3.50;;
47960;SDS011;33721;48.852;9.936;2024-01-06T12:29:43;7.68;;;3.40;;
47960;SDS011;33721;48.852;9.936;2024-01-06T12:32:09;7.68;;;3.08;;
47960;SDS011;33721;48.852;9.936;2024-01-06T12:34:38;6.18;;;3.13;;
47960;SDS011;33721;48.852;9.936;2024-01-06T12:37:04;6.07;;;3.00;;
47960;SDS011;33721;48.852;9.936;2024-01-06T12:39:32;6.35;;;3.08;;
47960;SDS011;33721;48.852;9.936;2024-01-06T12:41:58;7.07;;;3.22;;
47960;SDS011;33721;48.852;9.936;2024-01-06T12:44:27;8.82;;;3.20;;
47960;SDS011;33721;48.852;9.936;2024-01-06T12:46:53;8.07;;;3.50;;
47960;SDS011;33721;48.852;9.936;2024-01-06T12:49:19;8.18;;;4.03;;
47960;SDS011;33721;48.852;9.936;2024-01-06T12:51:45;16.38;;;5.80;;
47960;SDS011;33721;48.852;9.936;2024-01-06T12:54:10;10.50;;;4.55;;
47960;SDS011;33721;48.852;9.936;2024-01-06T12:56:36;8.30;;;4.05;;
47960;SDS011;33721;48.852;9.936;2024-01-06T12:59:02;8.30;;;4.20;;
47960;SDS011;33721;48.852;9.936;2024-01-06T13:01:27;10.15;;;4.45;;
47960;SDS011;33721;48.852;9.936;2024-01-06T13:03:53;8.98;;;4.53;;
47960;SDS011;33721;48.852;9.936;2024-01-06T13:06:19;9.70;;;3.97;;
47960;SDS011;33721;48.852;9.936;2024-01-06T13:08:45;11.75;;;4.68;;
47960;SDS011;33721;48.852;9.936;2024-01-06T13:11:12;7.00;;;3.72;;
47960;SDS011;33721;48.852;9.936;2024-01-06T13:13:38;7.63;;;3.92;;
47960;SDS011;33721;48.852;9.936;2024-01-06T13:16:03;7.63;;;3.25;;
47960;SDS011;33721;48.852;9.936;2024-01-06T13:18:30;6.47;;;3.47;;
47960;SDS011;33721;48.852;9.936;2024-01-06T13:20:56;7.05;;;3.78;;
47960;SDS011;33721;48.852;9.936;2024-01-06T13:23:22;12.05;;;4.07;;
47960;SDS011;33721;48.852;9.936;2024-01-06T13:25:47;7.57;;;3.80;;
47960;SDS011;33721;48.852;9.936;2024-01-06T13:28:13;7.28;;;3.92;;
47960;SDS011;33721;48.852;9.936;2024-01-06T13:30:39;8.10;;;4.07;;
47960;SDS011;33721;48.852;9.936;2024-01-06T13:33:06;7.45;;;3.85;;
47960;SDS011;33721;48.852;9.936;2024-01-06T13:35:32;7.40;;;3.75;;
47960;SDS011;33721;48.852;9.936;2024-01-06T13:37:59;7.65;;;3.50;;
47960;SDS011;33721;48.852;9.936;2024-01-06T13:40:24;8.05;;;4.20;;
47960;SDS011;33721;48.852;9.936;2024-01-06T13:42:50;9.50;;;4.07;;
47960;SDS011;33721;48.852;9.936;2024-01-06T13:45:17;7.90;;;4.25;;
47960;SDS011;33721;48.852;9.936;2024-01-06T13:47:43;8.40;;;4.10;;
47960;SDS011;33721;48.852;9.936;2024-01-06T13:50:12;8.18;;;3.88;;
47960;SDS011;33721;48.852;9.936;2024-01-06T13:52:40;8.45;;;3.97;;
47960;SDS011;33721;48.852;9.936;2024-01-06T13:55:06;7.75;;;3.80;;
47960;SDS011;33721;48.852;9.936;2024-01-06T13:57:32;10.05;;;3.90;;
47960;SDS011;33721;48.852;9.936;2024-01-06T13:59:57;10.10;;;4.38;;
47960;SDS011;33721;48.852;9.936;2024-01-06T14:02:23;8.60;;;4.28;;
47960;SDS011;33721;48.852;9.936;2024-01-06T14:04:49;9.55;;;4.85;;
47960;SDS011;33721;48.852;9.936;2024-01-06T14:07:16;9.68;;;4.82;;
47960;SDS011;33721;48.852;9.936;2024-01-06T14:09:47;11.65;;;4.97;;
47960;SDS011;33721;48.852;9.936;2024-01-06T14:12:13;10.93;;;4.88;;
47960;SDS011;33721;48.852;9.936;2024-01-06T14:14:39;7.88;;;4.25;;
47960;SDS011;33721;48.852;9.936;2024-01-06T14:17:08;11.55;;;5.10;;
47960;SDS011;33721;48.852;9.936;2024-01-06T14:19:34;10.02;;;4.95;;
47960;SDS011;33721;48.852;9.936;2024-01-06T14:22:00;12.48;;;5.63;;
47960;SDS011;33721;48.852;9.936;2024-01-06T14:24:25;12.60;;;6.13;;
47960;SDS011;33721;48.852;9.936;2024-01-06T14:26:52;12.23;;;5.25;;
47960;SDS011;33721;48.852;9.936;2024-01-06T14:29:20;13.35;;;6.35;;
47960;SDS011;33721;48.852;9.936;2024-01-06T14:31:45;10.95;;;5.80;;
47960;SDS011;33721;48.852;9.936;2024-01-06T14:34:11;11.55;;;5.60;;
47960;SDS011;33721;48.852;9.936;2024-01-06T14:36:37;6.85;;;3.90;;
47960;SDS011;33721;48.852;9.936;2024-01-06T14:39:03;5.93;;;3.00;;